Nearby METAR Reports

 

KMHT - Manchester, New Hampshire, USA
Distance from station: W 16mi, 26km
Updated: Wed, 22-Nov-2017 9:37am EST
Light rain, Overcast
Light rain, Overcast
 Wind from NW
Wind: NW 7 mph , 11 km/h
Temperature: 41°F , 5°C
Wind Chill: 36°F , 2°C
Dew Point: 39°F , 4°C
Humidity: 93%
Barometer: 29.88 inHg , 1011.9 hPa
Summary: Light rain
Clouds: Overcast
Visibility: 7 miles , 11 km
Cloud details: Mostly cloudy 800 ft
Mostly cloudy 6000 ft
Overcast 7000 ft
2017/11/22 14:37 KMHT 221437Z 31006KT 7SM -RA BKN008 BKN060 OVC070 05/04 A2988 RMK AO2 P0001 T00500044
KPSM - Portsmouth/Pease, New Hampshire, USA
Distance from station: ENE 17mi, 27km
Updated: Wed, 22-Nov-2017 9:14am EST
Light rain, Mist, Overcast
Light rain, Mist, Overcast
 Wind from E
Wind: E 3 mph , 6 km/h
Temperature: 41°F , 5°C
Dew Point: 39°F , 4°C
Humidity: 93%
Barometer: 29.91 inHg , 1012.9 hPa
Summary: Light rain, Mist
Clouds: Overcast
Visibility: 3 miles , 5 km
Cloud details: Mostly cloudy 2500 ft
Overcast 4900 ft
2017/11/22 14:14 KPSM 221414Z 10003KT 3SM -RA BR BKN025 OVC049 05/04 A2991 RMK AO2A PRESFR CHINO RWY16 $
 
KASH - Nashua/Boire Fld, New Hampshire, USA
Distance from station: WSW 24mi, 38km
Updated: Wed, 22-Nov-2017 9:26am EST
Light rain, Mist, Overcast
Light rain, Mist, Overcast
 Wind from WNW
Wind: WNW 3 mph , 6 km/h
Temperature: 39°F , 4°C
Dew Point: 39°F , 4°C
Humidity: 100%
Barometer: 29.89 inHg , 1012.2 hPa
Summary: Light rain, Mist
Clouds: Overcast
Visibility: 6 miles , 10 km
Cloud details: Mostly cloudy 500 ft
Overcast 6000 ft
2017/11/22 14:26 KASH 221426Z 30003KT 6SM -RA BR BKN005 OVC060 04/04 A2989 RMK AO2 CIG 005V012 P0001
KDAW - Rochester, New Hampshire, USA
Distance from station: NNE 24mi, 39km
Updated: Wed, 22-Nov-2017 8:51am EST
Light rain, Overcast
Light rain, Overcast
 Wind from calm
Wind: Calm
Temperature: 37°F , 3°C
Dew Point: 37°F , 3°C
Humidity: 100%
Barometer: 29.93 inHg , 1013.5 hPa
Summary: Light rain
Clouds: Overcast
Visibility: 8 miles , 13 km
Cloud details: Overcast 6000 ft
2017/11/22 13:51 KDAW 221351Z AUTO 00000KT 8SM -RA OVC060 03/03 A2993 RMK AO2 RAB14 SLP133 P0001 T00330028